Pistol River, Oregon
Current Conditions -  °F | °C
As of 11:56 AM on Thursday 30 Oct 2014 (Local Time) from KBOK Reporting Station
Light Rain Light Rain  
Wind Chill: 60°   Ceiling: 100
Heat Index: 60°   Visibility: 0mi
Dew Point: 60°   Wind: 9mph
Humidity: 100%   Direction: 150°SSE
Pressure: 29.92"   Gusts: NA
Location:  42.5771°N, 124.359°W
Report Text: KBOK 301856Z AUTO 15008KT M1/4SM -RA FG OVC001 16/16 A2992 RMK AO2 T01550155 RAB07E30B50 P0001 SLP133
Loading
Personal Weather Stations






























Interactive Weather Map
Tropical Storm Tracking
New forecast layout! Learn more

10-Day Weather Forecast

Advertisements
Track Severe Weather on mobile